Time;durP1;ratioP1;P1;durP2;ratioP2;P2;SDS_P1;SDS_P2;PMS_P1;PMS_P2;Temp;Humidity;BMP_temperature;BMP_pressure;BME280_temperature;BME280_humidity;BME280_pressure;Samples;Min_cycle;Max_cycle;Signal;HPM_P1;HPM_P2
2020/12/04 06:28:55;;;;;;;3.08;1.45;;;6.00;99.90;;;;;;4235893;22;20100;-70
2020/12/04 06:31:32;;;;;;;2.03;1.17;;;6.00;99.90;;;;;;4986776;28;20073;-70
2020/12/04 06:34:13;;;;;;;2.08;1.27;;;6.00;99.90;;;;;;4989453;28;20050;-70
2020/12/04 06:36:40;;;;;;;2.00;1.20;;;6.10;99.90;;;;;;4991499;28;20466;-70
2020/12/04 06:39:31;;;;;;;2.28;1.20;;;6.10;99.90;;;;;;4993006;28;20129;-70
2020/12/04 06:41:59;;;;;;;2.45;1.25;;;6.10;99.90;;;;;;4992620;28;20382;-70
2020/12/04 06:44:37;;;;;;;2.45;1.13;;;6.20;99.90;;;;;;4989888;28;20046;-70
2020/12/04 06:47:13;;;;;;;2.08;1.20;;;6.20;99.90;;;;;;4968414;28;20058;-70
2020/12/04 06:49:39;;;;;;;1.70;1.00;;;6.20;99.90;;;;;;4985647;28;20057;-70
2020/12/04 06:52:09;;;;;;;2.05;1.08;;;6.20;99.90;;;;;;4990389;28;20548;-70
2020/12/04 06:54:38;;;;;;;;;;;6.20;99.90;;;;;;4992518;28;20046;-70
2020/12/04 06:57:05;;;;;;;2.03;1.10;;;6.30;99.90;;;;;;4994367;28;20005;-70
2020/12/04 07:02:12;;;;;;;2.20;1.10;;;6.30;99.90;;;;;;5006236;28;20061;-73
2020/12/04 07:04:47;;;;;;;2.97;1.00;;;6.40;99.90;;;;;;5009345;28;20129;-72
2020/12/04 07:07:20;;;;;;;2.28;1.17;;;6.30;99.90;;;;;;4999472;28;20415;-73
2020/12/04 07:10:03;;;;;;;1.80;0.85;;;6.30;99.90;;;;;;5006020;28;20068;-72
2020/12/04 07:12:31;;;;;;;1.90;1.00;;;6.30;99.90;;;;;;5009256;28;20056;-73
2020/12/04 07:14:59;;;;;;;1.98;1.00;;;6.30;99.90;;;;;;5012817;28;20481;-72
2020/12/04 07:17:27;;;;;;;1.83;0.90;;;6.30;99.90;;;;;;4998616;28;20124;-72
2020/12/04 07:19:55;;;;;;;2.15;0.95;;;6.30;99.90;;;;;;5004541;28;20085;-72
2020/12/04 07:22:23;;;;;;;1.63;0.85;;;6.30;99.90;;;;;;5005926;28;20098;-72
2020/12/04 07:24:51;;;;;;;1.95;0.90;;;6.30;99.90;;;;;;5004527;28;20146;-72
2020/12/04 07:27:24;;;;;;;2.03;1.15;;;6.30;99.90;;;;;;5012970;28;20373;-72
2020/12/04 07:29:51;;;;;;;1.73;0.90;;;6.30;99.90;;;;;;5013614;28;20058;-72
2020/12/04 07:32:21;;;;;;;2.13;1.20;;;6.30;99.90;;;;;;5010188;28;20154;-72
2020/12/04 07:34:48;;;;;;;1.30;0.70;;;6.40;99.90;;;;;;5013004;28;20075;-72
2020/12/04 07:37:14;;;;;;;2.80;1.00;;;6.40;99.90;;;;;;5008850;28;20050;-72
2020/12/04 07:39:42;;;;;;;2.00;0.90;;;6.40;99.90;;;;;;5013197;28;20058;-72
2020/12/04 07:42:10;;;;;;;3.88;0.93;;;6.50;99.90;;;;;;4998632;28;20133;-73
2020/12/04 07:44:39;;;;;;;2.65;0.90;;;6.50;99.90;;;;;;5000322;28;20042;-73
2020/12/04 07:47:14;;;;;;;2.28;0.88;;;6.50;99.90;;;;;;5013073;28;20054;-72
2020/12/04 07:49:44;;;;;;;1.60;0.90;;;6.50;99.90;;;;;;4995143;28;20081;-73
2020/12/04 07:52:18;;;;;;;2.15;0.70;;;6.60;99.90;;;;;;5007525;28;20062;-72
2020/12/04 07:54:45;;;;;;;1.38;0.75;;;6.60;99.90;;;;;;5000081;28;20046;-70
2020/12/04 07:57:12;;;;;;;1.33;0.70;;;6.60;99.90;;;;;;4998359;28;20054;-72
2020/12/04 07:59:39;;;;;;;1.45;0.70;;;6.60;99.90;;;;;;5010823;28;20146;-72
2020/12/04 08:02:07;;;;;;;2.13;0.93;;;6.70;99.90;;;;;;5008267;28;20050;-72
2020/12/04 08:04:35;;;;;;;1.60;0.63;;;6.70;99.90;;;;;;5007277;28;20125;-72
2020/12/04 08:07:12;;;;;;;2.20;1.10;;;6.80;99.90;;;;;;5010483;28;20092;-72
2020/12/04 08:09:41;;;;;;;1.23;0.60;;;6.80;99.90;;;;;;5009350;28;20053;-72
2020/12/04 08:12:17;;;;;;;1.77;0.90;;;6.80;99.90;;;;;;4998052;28;20129;-72
2020/12/04 08:14:55;;;;;;;1.65;0.80;;;6.90;99.90;;;;;;4988282;28;20129;-72
2020/12/04 08:17:30;;;;;;;1.20;0.63;;;6.90;99.90;;;;;;4990067;28;20052;-72
2020/12/04 08:19:59;;;;;;;1.75;0.70;;;6.90;99.90;;;;;;4998067;28;20046;-72
2020/12/04 08:22:27;;;;;;;1.20;0.50;;;7.00;99.90;;;;;;5007037;28;20133;-72
2020/12/04 08:27:32;;;;;;;1.35;0.68;;;7.00;99.90;;;;;;5000710;28;20046;-72
2020/12/04 08:30:18;;;;;;;1.40;0.50;;;7.00;99.90;;;;;;4983612;28;20056;-72
2020/12/04 08:32:47;;;;;;;0.93;0.55;;;7.00;99.90;;;;;;4970588;28;20446;-72
2020/12/04 08:35:19;;;;;;;1.55;0.55;;;7.10;99.90;;;;;;4990090;28;20098;-71
2020/12/04 08:37:48;;;;;;;0.98;0.50;;;7.20;99.90;;;;;;5008473;28;20042;-72
2020/12/04 08:40:31;;;;;;;2.20;0.43;;;7.20;99.90;;;;;;5007608;28;20056;-72
2020/12/04 08:43:24;;;;;;;1.52;0.50;;;7.30;99.90;;;;;;5012333;28;20046;-72
2020/12/04 08:45:55;;;;;;;1.17;0.40;;;7.30;99.90;;;;;;4989116;28;20050;-72
2020/12/04 08:48:28;;;;;;;0.70;0.40;;;7.40;99.90;;;;;;5006798;28;20615;-72
2020/12/04 08:51:00;;;;;;;1.42;0.60;;;7.50;99.90;;;;;;5002217;28;20057;-72
2020/12/04 08:53:31;;;;;;;1.90;0.50;;;7.60;99.90;;;;;;5008037;28;20054;-72
2020/12/04 08:55:58;;;;;;;2.42;0.60;;;7.80;99.90;;;;;;4988394;28;20052;-72
2020/12/04 08:58:26;;;;;;;1.27;0.60;;;7.80;99.90;;;;;;5006411;28;20129;-72
2020/12/04 09:00:54;;;;;;;1.90;0.50;;;7.80;99.90;;;;;;5003390;28;20433;-71
2020/12/04 09:03:22;;;;;;;1.10;0.60;;;7.80;99.90;;;;;;5009039;28;20473;-71
2020/12/04 09:05:49;;;;;;;1.85;0.70;;;7.80;99.90;;;;;;4999206;28;20400;-72
2020/12/04 09:08:15;;;;;;;1.92;0.73;;;7.80;99.90;;;;;;5003757;28;20070;-72
2020/12/04 09:10:42;;;;;;;1.52;0.77;;;7.70;99.90;;;;;;5009158;28;20061;-72
2020/12/04 09:13:09;;;;;;;1.45;0.60;;;7.80;99.90;;;;;;5005019;28;20050;-72
2020/12/04 09:15:36;;;;;;;1.55;0.70;;;7.90;99.90;;;;;;5009497;28;20453;-72
2020/12/04 09:18:03;;;;;;;1.80;0.70;;;8.00;99.90;;;;;;5007741;28;20052;-72
2020/12/04 09:20:30;;;;;;;1.40;0.55;;;8.00;99.90;;;;;;5008399;28;20045;-72
2020/12/04 09:22:58;;;;;;;1.50;0.50;;;7.90;99.90;;;;;;5003698;28;20049;-72
2020/12/04 09:25:25;;;;;;;1.58;0.60;;;7.90;99.90;;;;;;5004188;28;20397;-72
2020/12/04 09:27:52;;;;;;;1.50;0.70;;;7.80;99.90;;;;;;4986430;28;20058;-72
2020/12/04 09:30:19;;;;;;;1.55;0.80;;;7.90;99.90;;;;;;4993980;28;20057;-72
2020/12/04 09:32:48;;;;;;;1.17;0.60;;;7.90;99.90;;;;;;5015491;28;20068;-72
2020/12/04 09:35:15;;;;;;;2.50;0.60;;;7.90;99.90;;;;;;5011235;28;20056;-72
2020/12/04 09:37:42;;;;;;;1.10;0.70;;;8.10;99.90;;;;;;5003123;28;20148;-72
2020/12/04 09:40:17;;;;;;;1.17;0.60;;;8.10;99.90;;;;;;5003197;28;20052;-72
2020/12/04 09:42:43;;;;;;;0.80;0.50;;;8.10;99.90;;;;;;5005940;28;20399;-72
2020/12/04 09:45:11;;;;;;;2.33;0.73;;;8.20;99.90;;;;;;5010141;28;20052;-71
2020/12/04 09:47:38;;;;;;;1.20;0.70;;;8.10;99.90;;;;;;5008789;28;20424;-72
2020/12/04 09:50:09;;;;;;;1.50;0.70;;;8.00;99.90;;;;;;5009853;28;20080;-72
2020/12/04 09:52:40;;;;;;;1.73;0.80;;;7.90;99.90;;;;;;5006069;28;20467;-73
2020/12/04 09:55:08;;;;;;;2.58;0.80;;;7.90;99.90;;;;;;5013043;28;20064;-72
2020/12/04 09:57:35;;;;;;;;;;;7.80;99.90;;;;;;5012512;28;20045;-71
2020/12/04 10:00:06;;;;;;;0.93;0.55;;;7.80;99.90;;;;;;5012550;28;20724;-71
2020/12/04 10:02:33;;;;;;;1.48;0.70;;;7.80;99.90;;;;;;5007810;28;20096;-71
2020/12/04 10:04:59;;;;;;;1.98;0.80;;;7.90;99.90;;;;;;5015117;28;20046;-72
2020/12/04 10:07:26;;;;;;;1.00;0.70;;;7.90;99.90;;;;;;5006081;28;20057;-70
2020/12/04 10:09:52;;;;;;;1.10;0.60;;;7.90;99.90;;;;;;5004654;28;20093;-70
2020/12/04 10:12:18;;;;;;;1.90;0.70;;;7.90;99.90;;;;;;5010453;28;20060;-70
2020/12/04 10:14:44;;;;;;;1.20;0.70;;;7.90;99.90;;;;;;5001727;28;20054;-71
2020/12/04 10:17:10;;;;;;;1.25;0.80;;;8.00;99.90;;;;;;5011141;28;20108;-70
2020/12/04 10:19:38;;;;;;;1.27;0.70;;;8.00;99.90;;;;;;5007423;28;20400;-70
2020/12/04 10:22:05;;;;;;;1.40;0.60;;;8.00;99.90;;;;;;5004134;28;20129;-70
2020/12/04 10:24:31;;;;;;;1.95;0.82;;;8.00;99.90;;;;;;4984310;28;20548;-71
2020/12/04 10:26:58;;;;;;;1.30;0.80;;;8.00;99.90;;;;;;4996043;28;20446;-70
2020/12/04 10:29:25;;;;;;;1.70;0.70;;;8.00;99.90;;;;;;5001934;28;20480;-71
2020/12/04 10:31:51;;;;;;;1.02;0.57;;;8.00;99.90;;;;;;4993389;28;20056;-71
2020/12/04 10:34:18;;;;;;;2.42;0.88;;;8.20;99.90;;;;;;4986073;28;20093;-71
2020/12/04 10:36:45;;;;;;;1.95;0.70;;;8.60;99.90;;;;;;4977224;28;20515;-71
2020/12/04 10:39:13;;;;;;;1.83;0.70;;;9.20;99.90;;;;;;5000473;28;20081;-70
2020/12/04 10:41:41;;;;;;;1.50;0.60;;;9.80;99.90;;;;;;4989859;28;20042;-70
2020/12/04 10:44:09;;;;;;;1.38;0.70;;;9.90;99.90;;;;;;5003979;28;20045;-70
2020/12/04 10:46:38;;;;;;;2.55;0.70;;;10.10;99.90;;;;;;4993379;28;20044;-70
2020/12/04 10:49:05;;;;;;;;;;;10.30;99.90;;;;;;4984263;28;20130;-70
2020/12/04 10:51:33;;;;;;;;;;;10.50;99.90;;;;;;4994489;28;19929;-70
2020/12/04 10:54:01;;;;;;;1.05;0.60;;;10.40;99.90;;;;;;4990942;28;19929;-70
2020/12/04 10:56:28;;;;;;;2.58;0.60;;;10.30;99.90;;;;;;5001708;28;20046;-70
2020/12/04 10:58:54;;;;;;;1.65;0.60;;;10.10;99.90;;;;;;4998934;28;20077;-71
2020/12/04 11:07:05;;;;;;;1.45;1.10;;;9.60;99.90;;;;;;5012921;28;20072;-70
2020/12/04 11:09:32;;;;;;;1.45;0.60;;;9.70;99.90;;;;;;5014051;28;20694;-71
2020/12/04 11:11:58;;;;;;;1.52;0.60;;;10.10;99.90;;;;;;4986348;28;20132;-70
2020/12/04 11:14:24;;;;;;;1.33;0.70;;;10.50;99.90;;;;;;4993474;28;20468;-71
2020/12/04 11:16:50;;;;;;;2.30;0.55;;;10.70;99.90;;;;;;4994467;28;20096;-71
2020/12/04 11:19:17;;;;;;;1.52;0.70;;;10.80;99.90;;;;;;4991436;28;20053;-71
2020/12/04 11:21:43;;;;;;;1.77;0.80;;;10.80;99.90;;;;;;5011592;28;20052;-71
2020/12/04 11:24:09;;;;;;;1.50;0.70;;;10.70;99.90;;;;;;5013429;28;20114;-71
2020/12/04 11:26:36;;;;;;;1.27;0.63;;;10.60;99.90;;;;;;5010609;28;20052;-71
2020/12/04 11:29:03;;;;;;;1.30;0.65;;;10.60;99.90;;;;;;4997552;28;20074;-71
2020/12/04 11:31:29;;;;;;;1.20;0.65;;;10.90;99.90;;;;;;5012339;28;20057;-71
2020/12/04 11:33:55;;;;;;;1.52;0.65;;;11.10;99.90;;;;;;5013766;28;20396;-71
2020/12/04 11:36:21;;;;;;;0.90;0.45;;;10.90;99.90;;;;;;5010007;28;20229;-71
2020/12/04 11:38:48;;;;;;;1.10;0.60;;;10.50;99.90;;;;;;5012956;28;20457;-71
2020/12/04 11:41:14;;;;;;;1.83;0.63;;;10.30;99.90;;;;;;5011943;28;20042;-71
2020/12/04 11:43:40;;;;;;;0.98;0.60;;;10.40;99.90;;;;;;5001446;28;20046;-71
2020/12/04 11:46:06;;;;;;;1.27;0.73;;;9.90;99.90;;;;;;5012556;28;20042;-71
2020/12/04 11:48:33;;;;;;;1.00;0.55;;;9.60;99.90;;;;;;5013035;28;20042;-71
2020/12/04 11:50:59;;;;;;;1.15;0.77;;;9.20;99.90;;;;;;5007317;28;20133;-71
2020/12/04 11:53:26;;;;;;;0.98;0.50;;;8.90;99.90;;;;;;5011060;28;20054;-71
2020/12/04 11:55:52;;;;;;;1.02;0.63;;;8.70;99.90;;;;;;5013149;28;20133;-71
2020/12/04 11:58:18;;;;;;;1.10;0.70;;;8.70;99.90;;;;;;5011427;28;20462;-70
2020/12/04 12:00:45;;;;;;;1.23;0.85;;;8.70;99.90;;;;;;5006350;28;20092;-71
2020/12/04 12:03:11;;;;;;;1.60;1.00;;;8.90;99.90;;;;;;4998327;28;20065;-71
2020/12/04 12:05:38;;;;;;;1.70;1.30;;;9.10;99.90;;;;;;4993505;28;20072;-71
2020/12/04 12:08:07;;;;;;;2.95;2.70;;;9.50;99.90;;;;;;4996869;28;20113;-71
2020/12/04 12:10:33;;;;;;;4.93;4.43;;;9.90;99.90;;;;;;4996675;28;20055;-71
2020/12/04 12:13:00;;;;;;;2.03;1.58;;;10.40;99.90;;;;;;4991174;28;20068;-71
2020/12/04 12:15:26;;;;;;;3.45;1.08;;;10.80;99.90;;;;;;4992363;28;20058;-71
2020/12/04 12:17:52;;;;;;;1.38;0.80;;;10.90;99.90;;;;;;4994471;28;20136;-71
2020/12/04 12:20:20;;;;;;;1.25;0.80;;;10.80;99.90;;;;;;4996267;28;20477;-71
2020/12/04 12:22:46;;;;;;;1.65;0.73;;;10.60;99.90;;;;;;4990429;28;20046;-71
2020/12/04 12:25:12;;;;;;;1.90;0.70;;;10.20;99.90;;;;;;5002203;28;20051;-71
2020/12/04 12:27:40;;;;;;;9.80;8.90;;;9.90;99.90;;;;;;4988745;28;20065;-71
2020/12/04 12:30:06;;;;;;;1.25;0.60;;;9.60;99.90;;;;;;4994758;28;20050;-71
2020/12/04 12:32:33;;;;;;;1.05;0.80;;;9.40;99.90;;;;;;4993963;28;20054;-71
2020/12/04 12:35:03;;;;;;;1.40;1.08;;;9.30;99.90;;;;;;4992237;28;20466;-70
2020/12/04 12:37:31;;;;;;;3.58;3.28;;;9.10;99.90;;;;;;4991069;28;20546;-71
2020/12/04 12:40:02;;;;;;;1.40;0.80;;;9.00;99.90;;;;;;4998865;28;20046;-71
2020/12/04 12:42:29;;;;;;;2.45;0.80;;;8.90;99.90;;;;;;4992784;28;20053;-71
2020/12/04 12:44:55;;;;;;;1.60;0.80;;;8.80;99.90;;;;;;4997396;28;20046;-70
2020/12/04 12:47:21;;;;;;;1.20;0.60;;;8.70;99.90;;;;;;4992667;28;20064;-71
2020/12/04 12:49:47;;;;;;;1.00;0.60;;;8.70;99.90;;;;;;4996528;28;20538;-71
2020/12/04 12:52:14;;;;;;;1.00;0.50;;;8.70;99.90;;;;;;4990754;28;20127;-71
2020/12/04 12:54:41;;;;;;;1.17;0.50;;;8.60;99.90;;;;;;4994890;28;20088;-70
2020/12/04 12:57:07;;;;;;;1.88;0.70;;;8.60;99.90;;;;;;4984318;28;20047;-70
2020/12/04 12:59:34;;;;;;;1.25;0.80;;;8.60;99.90;;;;;;4991418;28;20046;-71
2020/12/04 13:02:00;;;;;;;1.88;0.88;;;8.60;99.90;;;;;;5008324;28;20052;-70
2020/12/04 13:04:27;;;;;;;1.20;0.57;;;8.60;99.90;;;;;;4988083;28;20066;-71
2020/12/04 13:06:54;;;;;;;1.10;0.50;;;8.60;99.90;;;;;;4985081;28;20445;-71
2020/12/04 13:09:24;;;;;;;1.52;0.70;;;8.50;99.90;;;;;;4985862;28;20069;-71
2020/12/04 13:11:51;;;;;;;1.10;0.70;;;8.40;99.90;;;;;;4985798;28;20507;-71
2020/12/04 13:14:18;;;;;;;1.00;0.60;;;8.50;99.90;;;;;;4984810;28;20545;-71
2020/12/04 13:16:46;;;;;;;0.95;0.50;;;8.50;99.90;;;;;;4970777;28;20043;-71
2020/12/04 13:19:20;;;;;;;1.05;0.75;;;8.60;99.90;;;;;;4988442;28;20058;-71
2020/12/04 13:21:54;;;;;;;1.40;0.80;;;8.60;99.90;;;;;;5003438;28;20074;-71
2020/12/04 13:24:26;;;;;;;1.50;1.00;;;8.60;99.90;;;;;;5000301;28;20659;-71
2020/12/04 13:26:52;;;;;;;2.95;0.70;;;8.60;99.90;;;;;;4975559;28;20046;-71
2020/12/04 13:29:19;;;;;;;1.10;0.82;;;8.60;99.90;;;;;;4983303;28;20064;-71
2020/12/04 13:31:49;;;;;;;1.30;0.82;;;8.60;99.90;;;;;;4972320;28;20054;-71
2020/12/04 13:34:16;;;;;;;2.13;1.17;;;8.60;99.90;;;;;;4985399;28;20097;-71
2020/12/04 13:36:42;;;;;;;0.50;0.30;;;8.60;99.90;;;;;;4980839;28;20074;-71
2020/12/04 13:39:09;;;;;;;3.53;1.67;;;8.50;99.90;;;;;;5006284;28;20069;-71
2020/12/04 13:41:35;;;;;;;1.00;0.57;;;8.60;99.90;;;;;;4980475;28;20042;-71
2020/12/04 13:44:02;;;;;;;1.05;0.40;;;8.60;99.90;;;;;;4986700;28;20513;-71
2020/12/04 13:46:28;;;;;;;0.85;0.50;;;8.50;99.90;;;;;;4988828;28;20046;-70
2020/12/04 13:48:55;;;;;;;2.50;0.95;;;8.60;99.90;;;;;;4982384;28;20046;-71
2020/12/04 13:51:21;;;;;;;1.17;0.60;;;8.50;99.90;;;;;;4984995;28;20072;-71
2020/12/04 13:53:47;;;;;;;1.65;0.65;;;8.40;99.90;;;;;;4984747;28;20050;-71
2020/12/04 13:56:13;;;;;;;2.35;0.65;;;8.40;99.90;;;;;;4984694;28;20049;-71
2020/12/04 13:58:40;;;;;;;3.58;0.93;;;8.30;99.90;;;;;;4991348;28;20058;-71
2020/12/04 14:01:08;;;;;;;2.00;1.25;;;8.30;99.90;;;;;;4994029;28;20054;-71
2020/12/04 14:03:34;;;;;;;1.33;0.93;;;8.20;99.90;;;;;;4973871;28;20377;-70
2020/12/04 14:06:01;;;;;;;1.10;0.77;;;8.20;99.90;;;;;;4992495;28;20160;-71
2020/12/04 14:08:28;;;;;;;1.30;0.90;;;8.10;99.90;;;;;;4996146;28;20046;-71
2020/12/04 14:10:54;;;;;;;1.08;0.63;;;8.10;99.90;;;;;;4998565;28;20140;-70
2020/12/04 14:13:20;;;;;;;1.17;0.57;;;8.10;99.90;;;;;;4996077;28;20128;-71
2020/12/04 14:15:50;;;;;;;1.30;0.60;;;8.00;99.90;;;;;;4987604;28;20101;-70
2020/12/04 14:18:18;;;;;;;1.00;0.55;;;8.00;99.90;;;;;;4989563;28;20046;-71
2020/12/04 14:20:44;;;;;;;2.47;0.70;;;7.90;99.90;;;;;;4992818;28;20054;-71
2020/12/04 14:23:10;;;;;;;2.25;0.90;;;7.90;99.90;;;;;;4975742;28;20045;-71
2020/12/04 14:25:36;;;;;;;1.33;0.70;;;7.90;99.90;;;;;;4994480;28;20488;-71
2020/12/04 14:28:02;;;;;;;0.93;0.60;;;7.80;99.90;;;;;;4992693;28;20249;-71
2020/12/04 14:30:29;;;;;;;1.10;0.60;;;7.80;99.90;;;;;;4979784;28;20073;-70
2020/12/04 14:32:56;;;;;;;0.93;0.50;;;7.80;99.90;;;;;;4995167;28;20058;-70
2020/12/04 14:35:22;;;;;;;2.22;0.70;;;7.80;99.90;;;;;;4977802;28;20058;-71
2020/12/04 14:37:48;;;;;;;2.25;0.50;;;7.90;99.90;;;;;;4986839;28;20065;-70
2020/12/04 14:40:30;;;;;;;1.00;0.47;;;8.10;99.90;;;;;;4990901;28;20056;-71
2020/12/04 14:42:58;;;;;;;1.65;0.50;;;8.40;99.90;;;;;;4992988;28;20439;-71
2020/12/04 14:45:25;;;;;;;1.00;0.50;;;8.90;99.90;;;;;;4995103;28;20121;-71
2020/12/04 14:47:52;;;;;;;1.10;0.50;;;9.40;99.90;;;;;;4993877;28;20052;-71
2020/12/04 14:50:18;;;;;;;1.08;0.40;;;9.80;99.90;;;;;;4992131;28;20056;-71
2020/12/04 14:52:45;;;;;;;1.80;0.50;;;10.10;99.90;;;;;;4994669;28;20060;-71
2020/12/04 14:55:11;;;;;;;1.98;0.43;;;10.10;99.90;;;;;;4994933;28;20420;-71
2020/12/04 14:57:40;;;;;;;1.25;0.50;;;9.80;99.90;;;;;;4992479;28;20049;-70
2020/12/04 15:00:12;;;;;;;0.75;0.40;;;9.70;99.90;;;;;;4994231;28;20049;-71
2020/12/04 15:02:39;;;;;;;1.10;0.40;;;9.30;99.90;;;;;;5003131;28;20038;-71
2020/12/04 15:05:07;;;;;;;0.85;0.40;;;9.10;99.90;;;;;;5002253;28;20050;-71
2020/12/04 15:07:34;;;;;;;0.97;0.60;;;8.80;99.90;;;;;;4991709;28;20151;-70
2020/12/04 15:10:01;;;;;;;2.35;0.63;;;8.60;99.90;;;;;;4985086;28;20390;-71
2020/12/04 15:12:28;;;;;;;1.85;0.60;;;8.50;99.90;;;;;;4986396;28;20110;-70
2020/12/04 15:15:00;;;;;;;1.05;0.50;;;8.50;99.90;;;;;;4988943;28;20058;-70
2020/12/04 15:17:27;;;;;;;1.00;0.50;;;8.40;99.90;;;;;;4993119;28;20038;-70
2020/12/04 15:19:57;;;;;;;1.40;0.55;;;8.30;99.90;;;;;;4996121;28;20053;-71
2020/12/04 15:22:23;;;;;;;1.50;0.85;;;8.10;99.90;;;;;;4997832;28;20038;-71
2020/12/04 15:24:49;;;;;;;1.20;0.70;;;8.00;99.90;;;;;;4990857;28;20504;-71
2020/12/04 15:27:16;;;;;;;2.65;0.90;;;7.90;99.90;;;;;;4994548;28;20045;-71
2020/12/04 15:29:43;;;;;;;1.30;0.68;;;7.80;99.90;;;;;;4990394;28;20046;-71
2020/12/04 15:32:12;;;;;;;1.27;0.82;;;7.70;99.90;;;;;;5007859;28;20054;-71
2020/12/04 15:34:45;;;;;;;1.27;0.70;;;7.60;99.90;;;;;;5004586;28;20042;-71
2020/12/04 15:37:13;;;;;;;2.10;0.70;;;7.50;99.90;;;;;;5004099;28;20085;-71
2020/12/04 15:39:40;;;;;;;1.25;0.70;;;7.40;99.90;;;;;;5000870;28;20501;-69
2020/12/04 15:42:08;;;;;;;1.90;0.77;;;7.30;99.90;;;;;;4997710;28;20053;-70
2020/12/04 15:44:35;;;;;;;1.73;0.70;;;7.30;99.90;;;;;;4980597;28;20053;-69
2020/12/04 15:47:02;;;;;;;4.07;0.95;;;7.20;99.90;;;;;;5001494;28;20124;-70
2020/12/04 15:49:29;;;;;;;2.50;0.80;;;7.20;99.90;;;;;;5005050;28;20481;-71
2020/12/04 15:52:00;;;;;;;1.30;0.80;;;7.20;99.90;;;;;;5004183;28;20046;-70
2020/12/04 15:54:27;;;;;;;1.48;0.90;;;7.10;99.90;;;;;;4998523;28;20441;-70
2020/12/04 15:56:54;;;;;;;1.48;0.77;;;7.10;99.90;;;;;;4998455;28;20473;-70
2020/12/04 15:59:21;;;;;;;1.48;0.65;;;7.10;99.90;;;;;;5005672;28;20046;-70
2020/12/04 16:01:53;;;;;;;1.42;0.80;;;7.00;99.90;;;;;;4994079;28;20054;-69
2020/12/04 16:04:22;;;;;;;1.30;0.80;;;7.00;99.90;;;;;;4991439;28;20042;-69
2020/12/04 16:06:52;;;;;;;1.92;0.90;;;6.90;99.90;;;;;;4989009;28;20667;-70
2020/12/04 16:09:20;;;;;;;1.55;0.85;;;6.90;99.90;;;;;;4974214;28;20486;-70
2020/12/04 16:11:51;;;;;;;1.45;1.10;;;6.90;99.90;;;;;;4992826;28;20493;-70
2020/12/04 16:14:18;;;;;;;2.53;1.10;;;6.80;99.90;;;;;;4976896;28;20061;-70
2020/12/04 16:16:47;;;;;;;1.50;1.00;;;6.80;99.90;;;;;;4973245;28;20046;-70
2020/12/04 16:19:14;;;;;;;1.40;0.70;;;6.80;99.90;;;;;;4993363;28;20133;-70
2020/12/04 16:21:45;;;;;;;1.75;0.70;;;6.70;99.90;;;;;;4991682;28;20077;-71
2020/12/04 16:24:12;;;;;;;1.35;0.70;;;6.70;99.90;;;;;;4991079;28;20050;-71
2020/12/04 16:26:39;;;;;;;1.50;0.70;;;6.70;99.90;;;;;;4991800;28;20129;-71
2020/12/04 16:29:06;;;;;;;1.73;0.60;;;6.60;99.90;;;;;;4986620;28;20133;-71
2020/12/04 16:31:33;;;;;;;1.30;0.75;;;6.60;99.90;;;;;;4987204;28;20056;-71
2020/12/04 16:34:00;;;;;;;1.50;0.68;;;6.60;99.90;;;;;;4992238;28;20042;-70
2020/12/04 16:36:27;;;;;;;1.90;1.02;;;6.50;99.90;;;;;;4991931;28;20081;-71
2020/12/04 16:38:59;;;;;;;1.20;0.70;;;6.50;99.90;;;;;;4972887;28;20108;-71
2020/12/04 16:41:26;;;;;;;1.40;0.80;;;6.50;99.90;;;;;;4992016;28;20049;-71
2020/12/04 16:43:53;;;;;;;2.13;1.00;;;6.40;99.90;;;;;;4999322;28;20085;-71
2020/12/04 16:46:19;;;;;;;1.85;0.85;;;6.40;99.90;;;;;;4987418;28;20078;-71
2020/12/04 16:48:46;;;;;;;2.13;0.98;;;6.40;99.90;;;;;;4992852;28;20123;-71
2020/12/04 16:51:13;;;;;;;2.25;0.90;;;6.40;99.90;;;;;;4993311;28;20212;-71
2020/12/04 16:53:42;;;;;;;2.05;1.02;;;6.30;99.90;;;;;;4983593;28;20549;-71
2020/12/04 16:56:09;;;;;;;1.80;0.90;;;6.30;99.90;;;;;;4992158;28;20482;-71
2020/12/04 16:58:37;;;;;;;2.33;1.20;;;6.30;99.90;;;;;;4991707;28;20125;-71
2020/12/04 17:01:06;;;;;;;3.63;0.93;;;6.30;99.90;;;;;;4992253;28;20050;-71
2020/12/04 17:03:32;;;;;;;;;;;6.40;99.90;;;;;;4993276;28;20463;-71
2020/12/04 17:06:00;;;;;;;1.90;0.80;;;6.40;99.90;;;;;;5000502;28;20424;-70
2020/12/04 17:08:27;;;;;;;1.83;1.05;;;6.40;99.90;;;;;;5002132;28;20046;-70
2020/12/04 17:10:53;;;;;;;1.65;1.00;;;6.40;99.90;;;;;;4993479;28;20104;-70
2020/12/04 17:13:20;;;;;;;2.65;0.90;;;6.50;99.90;;;;;;4984833;28;20050;-69
2020/12/04 17:15:46;;;;;;;1.20;0.80;;;6.50;99.90;;;;;;4981895;28;20052;-70
2020/12/04 17:18:12;;;;;;;1.88;1.13;;;6.50;99.90;;;;;;4996568;28;20652;-71
2020/12/04 17:20:39;;;;;;;2.08;0.85;;;6.60;99.90;;;;;;4994585;28;20050;-70
2020/12/04 17:23:06;;;;;;;2.33;1.20;;;6.60;99.90;;;;;;4994649;28;20045;-69
2020/12/04 17:25:32;;;;;;;2.38;1.00;;;6.60;99.90;;;;;;5000060;28;20136;-70
2020/12/04 17:27:59;;;;;;;3.42;1.17;;;6.60;99.90;;;;;;4987809;28;20061;-71
2020/12/04 17:30:25;;;;;;;1.67;1.00;;;6.70;99.90;;;;;;4988054;28;20058;-70
2020/12/04 17:32:54;;;;;;;1.65;0.90;;;6.60;99.90;;;;;;4997916;28;20061;-70
2020/12/04 17:35:20;;;;;;;1.92;1.10;;;6.70;99.90;;;;;;5000040;28;20081;-70
2020/12/04 17:37:47;;;;;;;2.10;1.20;;;6.60;99.90;;;;;;5003030;28;20046;-71
2020/12/04 17:40:13;;;;;;;2.45;1.05;;;6.60;99.90;;;;;;5003862;28;20050;-70
2020/12/04 17:42:41;;;;;;;3.35;1.20;;;6.60;99.90;;;;;;4975474;28;20038;-70
2020/12/04 17:45:09;;;;;;;2.10;0.93;;;6.50;99.90;;;;;;4995279;28;20042;-70
2020/12/04 17:47:36;;;;;;;2.22;1.02;;;6.50;99.90;;;;;;4972557;28;20297;-70
2020/12/04 17:50:11;;;;;;;1.83;1.10;;;6.50;99.90;;;;;;4995398;28;20054;-70
2020/12/04 17:52:38;;;;;;;1.30;0.77;;;6.40;99.90;;;;;;4990651;28;20149;-69
2020/12/04 17:55:06;;;;;;;2.83;1.08;;;6.40;99.90;;;;;;4992160;28;20056;-70
2020/12/04 17:57:32;;;;;;;2.85;1.10;;;6.30;99.90;;;;;;4972443;28;20056;-70
2020/12/04 17:59:59;;;;;;;1.70;0.95;;;6.30;99.90;;;;;;4976590;28;20046;-70
2020/12/04 18:02:25;;;;;;;2.22;1.17;;;6.20;99.90;;;;;;4990492;28;20046;-69
2020/12/04 18:04:51;;;;;;;4.35;0.90;;;6.20;99.90;;;;;;4984552;28;20049;-70
2020/12/04 18:07:17;;;;;;;2.20;0.90;;;6.20;99.90;;;;;;4997844;28;20755;-69
2020/12/04 18:09:43;;;;;;;2.20;1.10;;;6.10;99.90;;;;;;4992187;28;20053;-69
2020/12/04 18:12:10;;;;;;;2.22;1.05;;;6.10;99.90;;;;;;4995348;28;20042;-70
2020/12/04 18:14:36;;;;;;;1.88;1.10;;;6.00;99.90;;;;;;4986320;28;20050;-70
2020/12/04 18:17:06;;;;;;;2.60;1.02;;;6.00;99.90;;;;;;5001727;28;20054;-70
2020/12/04 18:19:32;;;;;;;3.00;1.30;;;5.90;99.90;;;;;;4995144;28;20076;-70
2020/12/04 18:21:59;;;;;;;2.95;1.52;;;5.90;99.90;;;;;;5000579;28;20042;-70
2020/12/04 18:24:26;;;;;;;1.83;1.10;;;5.90;99.90;;;;;;4999058;28;20126;-69
2020/12/04 18:26:53;;;;;;;2.45;1.10;;;5.80;99.90;;;;;;4988037;28;20050;-70
2020/12/04 18:29:21;;;;;;;2.35;1.33;;;5.80;99.90;;;;;;5000859;28;20097;-69
2020/12/04 18:31:51;;;;;;;2.10;1.30;;;5.80;99.90;;;;;;4992983;28;20557;-70
2020/12/04 18:34:18;;;;;;;1.67;1.17;;;5.70;99.90;;;;;;4986797;28;20756;-70
2020/12/04 18:36:46;;;;;;;5.30;1.70;;;5.70;99.90;;;;;;5002016;28;20141;-70
2020/12/04 18:39:12;;;;;;;2.88;1.23;;;5.70;99.90;;;;;;5000946;28;20058;-70
2020/12/04 18:41:39;;;;;;;3.40;1.33;;;5.60;99.90;;;;;;4999544;28;20466;-70
2020/12/04 18:44:05;;;;;;;3.80;1.38;;;5.60;99.90;;;;;;5001242;28;20064;-70
2020/12/04 18:46:31;;;;;;;2.17;1.10;;;5.60;99.90;;;;;;4991646;28;20050;-70
2020/12/04 18:48:58;;;;;;;2.58;1.30;;;5.50;99.90;;;;;;5006071;28;20480;-71
2020/12/04 18:51:24;;;;;;;3.53;1.30;;;5.50;99.90;;;;;;5001335;28;20129;-71
2020/12/04 18:53:50;;;;;;;2.70;1.15;;;5.50;99.90;;;;;;4998250;28;20418;-71
2020/12/04 18:56:24;;;;;;;5.30;1.50;;;5.40;99.90;;;;;;4982707;28;20138;-71
2020/12/04 18:58:51;;;;;;;3.08;1.60;;;5.40;99.90;;;;;;4995692;28;20066;-70
2020/12/04 19:01:17;;;;;;;3.38;1.50;;;5.40;99.90;;;;;;5004296;28;20133;-70
2020/12/04 19:03:44;;;;;;;3.15;1.50;;;5.30;99.90;;;;;;5010456;28;20048;-70
2020/12/04 19:06:10;;;;;;;3.15;1.77;;;5.30;99.90;;;;;;4996085;28;20129;-69
2020/12/04 19:08:37;;;;;;;3.33;1.70;;;5.30;99.90;;;;;;4979067;28;20076;-69
2020/12/04 19:11:05;;;;;;;2.00;1.25;;;5.20;99.90;;;;;;4991893;28;20450;-69
2020/12/04 19:13:32;;;;;;;5.30;1.70;;;5.20;99.90;;;;;;4980541;28;20043;-70
2020/12/04 19:15:59;;;;;;;2.47;1.40;;;5.20;99.90;;;;;;5004966;28;20500;-70
2020/12/04 19:18:26;;;;;;;3.22;1.92;;;5.10;99.90;;;;;;4985493;28;20042;-70
2020/12/04 19:20:53;;;;;;;4.20;1.35;;;5.10;99.90;;;;;;5009404;28;20077;-69
2020/12/04 19:23:19;;;;;;;2.15;1.40;;;5.10;99.90;;;;;;5005616;28;20140;-70
2020/12/04 19:25:45;;;;;;;2.20;1.40;;;5.00;99.90;;;;;;5005397;28;20042;-69
2020/12/04 19:28:11;;;;;;;2.72;1.77;;;5.00;99.90;;;;;;5006868;28;20089;-70
2020/12/04 19:30:38;;;;;;;3.17;1.63;;;5.00;99.90;;;;;;4995069;28;20133;-70
2020/12/04 19:33:04;;;;;;;3.63;1.77;;;4.90;99.90;;;;;;4977271;28;20048;-69
2020/12/04 19:35:30;;;;;;;2.58;1.50;;;4.90;99.90;;;;;;5006650;28;20043;-69
2020/12/04 19:37:57;;;;;;;2.90;1.60;;;4.90;99.90;;;;;;5001300;28;20480;-69
2020/12/04 19:40:24;;;;;;;3.63;2.25;;;4.90;99.90;;;;;;5007347;28;20051;-70